createdAt,value
2019-04-22T00:01:12.945Z,98778.57
2019-04-22T00:03:44.805Z,98773.95
2019-04-22T00:06:38.199Z,98772.27
2019-04-22T00:09:03.745Z,98761.63
2019-04-22T00:14:01.210Z,98763.01
2019-04-22T00:16:38.838Z,98765.29
2019-04-22T00:24:04.507Z,98754.20
2019-04-22T00:26:37.991Z,98749.51
2019-04-22T00:29:10.962Z,98747.84
2019-04-22T00:31:32.740Z,98746.73
2019-04-22T00:34:03.458Z,98750.48
2019-04-22T00:36:35.235Z,98750.03
2019-04-22T00:39:07.385Z,98742.02
2019-04-22T00:41:42.556Z,98739.22
2019-04-22T00:44:15.731Z,98738.47
2019-04-22T00:46:42.418Z,98736.95
2019-04-22T00:49:55.416Z,98740.34
2019-04-22T00:51:44.332Z,98733.88
2019-04-22T00:54:08.571Z,98734.94
2019-04-22T00:56:35.728Z,98739.86
2019-04-22T00:59:07.065Z,98738.84
2019-04-22T01:01:37.137Z,98731.54
2019-04-22T01:04:16.254Z,98729.77
2019-04-22T01:06:41.362Z,98721.53
2019-04-22T01:09:13.682Z,98722.36
2019-04-22T01:11:37.618Z,98718.23
2019-04-22T01:14:06.434Z,98716.44
2019-04-22T01:16:43.020Z,98716.67
2019-04-22T01:19:14.751Z,98715.19
2019-04-22T01:21:39.167Z,98709.73
2019-04-22T01:24:09.211Z,98708.44
2019-04-22T01:26:36.206Z,98703.08
2019-04-22T01:29:05.104Z,98698.93
2019-04-22T01:31:27.531Z,98695.11
2019-04-22T01:34:05.480Z,98693.70
2019-04-22T01:36:43.115Z,98688.39
2019-04-22T01:39:16.711Z,98687.98
2019-04-22T01:41:58.085Z,98690.77
2019-04-22T01:46:53.991Z,98687.17
2019-04-22T01:49:21.488Z,98687.17
2019-04-22T01:54:29.768Z,98681.03
2019-04-22T01:56:52.638Z,98673.41
2019-04-22T01:59:15.655Z,98674.05
2019-04-22T02:04:25.600Z,98671.23
2019-04-22T02:11:57.196Z,98668.14
2019-04-22T02:14:29.170Z,98661.30
2019-04-22T02:16:58.067Z,98662.81
2019-04-22T02:20:31.593Z,98659.50
2019-04-22T02:21:56.602Z,98655.48
2019-04-22T02:24:26.421Z,98655.98
2019-04-22T02:34:37.568Z,98649.38
2019-04-22T02:36:56.279Z,98648.80
2019-04-22T02:39:24.423Z,98661.89
2019-04-22T02:42:02.942Z,98657.01
2019-04-22T02:44:31.331Z,98648.59
2019-04-22T02:51:52.325Z,98650.15
2019-04-22T02:54:38.327Z,98641.23
2019-04-22T02:57:03.342Z,98636.86
2019-04-22T02:59:31.367Z,98632.78
2019-04-22T03:01:57.953Z,98630.12
2019-04-22T03:04:22.823Z,98627.94
2019-04-22T03:06:49.499Z,98618.97
2019-04-22T03:09:28.653Z,98618.97
2019-04-22T03:12:09.645Z,98618.95
2019-04-22T03:14:30.304Z,98621.41
2019-04-22T03:17:03.537Z,98613.09
2019-04-22T03:19:47.694Z,98613.05
2019-04-22T03:22:06.119Z,98605.25
2019-04-22T03:27:01.108Z,98600.33
2019-04-22T03:33:09.511Z,98596.66
2019-04-22T03:37:48.836Z,98595.18
2019-04-22T03:40:16.201Z,98589.72
2019-04-22T03:42:46.177Z,98594.19
2019-04-22T03:45:22.396Z,98588.65
2019-04-22T03:47:41.514Z,98585.20
2019-04-22T03:50:17.396Z,98591.47
2019-04-22T03:52:43.073Z,98581.89
2019-04-22T03:55:07.426Z,98580.45
2019-04-22T04:00:17.392Z,98580.75
2019-04-22T04:05:19.656Z,98567.61
2019-04-22T04:10:23.388Z,98565.11
2019-04-22T04:12:47.123Z,98566.71
2019-04-22T04:15:18.994Z,98565.84
2019-04-22T04:17:50.136Z,98562.91
2019-04-22T04:37:52.129Z,98546.02
2019-04-22T04:47:49.269Z,98546.88
2019-04-22T04:50:32.091Z,98547.03
2019-04-22T04:53:08.348Z,98542.36
2019-04-22T05:02:55.618Z,98552.34
2019-04-22T05:10:26.494Z,98541.66
2019-04-22T05:15:21.185Z,98541.45
2019-04-22T05:20:29.455Z,98538.55
2019-04-22T05:22:46.083Z,98536.83
2019-04-22T05:25:18.573Z,98534.10
2019-04-22T05:32:44.572Z,98534.30
2019-04-22T05:35:14.414Z,98530.67
2019-04-22T05:37:45.542Z,98525.34
2019-04-22T05:40:16.275Z,98527.56
2019-04-22T05:42:39.629Z,98523.27
2019-04-22T05:47:41.698Z,98525.30
2019-04-22T05:50:15.128Z,98523.63
2019-04-22T05:52:47.138Z,98523.99
2019-04-22T05:55:26.797Z,98521.96
2019-04-22T05:57:51.138Z,98512.16
2019-04-22T06:00:26.867Z,98519.13
2019-04-22T06:02:55.654Z,98517.64
2019-04-22T06:05:17.493Z,98517.88
2019-04-22T06:07:45.704Z,98522.21
2019-04-22T06:10:31.087Z,98523.44
2019-04-22T06:12:55.276Z,98528.31
2019-04-22T06:15:27.166Z,98523.34
2019-04-22T06:18:06.477Z,98523.61
2019-04-22T06:20:32.565Z,98522.06
2019-04-22T06:25:38.790Z,98525.41
2019-04-22T06:28:11.845Z,98519.16
2019-04-22T06:30:48.725Z,98519.11
2019-04-22T06:33:00.851Z,98517.52
2019-04-22T06:35:54.599Z,98519.20
2019-04-22T06:40:32.840Z,98518.73
2019-04-22T06:45:37.299Z,98519.09
2019-04-22T06:48:06.737Z,98527.78
2019-04-22T06:50:40.127Z,98519.94
2019-04-22T06:53:05.822Z,98514.55
2019-04-22T06:58:04.560Z,98518.23
2019-04-22T07:00:36.948Z,98521.45
2019-04-22T07:03:30.094Z,98520.14
2019-04-22T07:05:43.420Z,98513.19
2019-04-22T07:08:30.485Z,98520.83
2019-04-22T07:10:53.160Z,98521.86
2019-04-22T07:13:11.249Z,98512.82
2019-04-22T07:18:11.708Z,98519.58
2019-04-22T07:20:45.865Z,98514.95
2019-04-22T07:23:13.871Z,98513.95
2019-04-22T07:25:41.317Z,98519.47
2019-04-22T07:28:13.963Z,98513.44
2019-04-22T07:30:38.974Z,98510.42
2019-04-22T07:33:21.076Z,98504.23
2019-04-22T07:35:54.903Z,98507.17
2019-04-22T07:38:22.287Z,98511.59
2019-04-22T07:40:45.748Z,98500.69
2019-04-22T07:43:20.083Z,98506.33
2019-04-22T07:45:44.022Z,98501.42
2019-04-22T07:48:22.555Z,98498.14
2019-04-22T07:53:12.580Z,98493.40
2019-04-22T07:55:46.741Z,98488.38
2019-04-22T07:58:19.548Z,98487.48
2019-04-22T08:00:43.807Z,98486.77
2019-04-22T08:03:18.509Z,98484.26
2019-04-22T08:08:20.090Z,98480.42
2019-04-22T08:10:49.631Z,98473.41
2019-04-22T08:13:19.193Z,98474.16
2019-04-22T08:15:53.979Z,98477.64
2019-04-22T08:18:22.200Z,98473.36
2019-04-22T08:20:47.229Z,98472.19
2019-04-22T08:23:24.300Z,98467.75
2019-04-22T08:25:49.559Z,98463.77
2019-04-22T08:28:26.529Z,98465.47
2019-04-22T08:30:53.601Z,98463.06
2019-04-22T08:36:07.247Z,98463.21
2019-04-22T08:38:34.237Z,98457.09
2019-04-22T08:41:08.669Z,98457.56
2019-04-22T08:43:36.323Z,98460.19
2019-04-22T08:45:58.462Z,98455.63
2019-04-22T08:48:30.832Z,98445.08
2019-04-22T08:51:07.582Z,98445.58
2019-04-22T08:53:35.855Z,98443.97
2019-04-22T08:56:06.266Z,98443.03
2019-04-22T08:58:31.240Z,98442.20
2019-04-22T09:01:05.289Z,98444.83
2019-04-22T09:03:36.137Z,98434.61
2019-04-22T09:06:06.500Z,98433.17
2019-04-22T09:08:38.741Z,98415.73
2019-04-22T09:11:07.047Z,98434.86
2019-04-22T09:13:37.134Z,98422.14
2019-04-22T09:16:08.905Z,98427.78
2019-04-22T09:18:34.788Z,98423.69
2019-04-22T09:21:14.208Z,98427.42
2019-04-22T09:23:37.229Z,98415.64
2019-04-22T09:26:03.475Z,98416.02
2019-04-22T09:28:38.067Z,98417.11
2019-04-22T09:31:06.080Z,98416.89
2019-04-22T09:33:34.979Z,98405.53
2019-04-22T09:36:09.489Z,98412.41
2019-04-22T09:41:09.879Z,98393.35
2019-04-22T09:43:41.045Z,98384.20
2019-04-22T09:46:21.588Z,98397.37
2019-04-22T09:48:37.500Z,98392.95
2019-04-22T09:51:07.005Z,98379.83
2019-04-22T09:53:36.115Z,98375.59
2019-04-22T09:56:03.959Z,98376.07
2019-04-22T09:58:41.632Z,98373.47
2019-04-22T10:03:54.627Z,98359.91
2019-04-22T10:06:23.173Z,98364.42
2019-04-22T10:09:01.746Z,98358.20
2019-04-22T10:11:24.036Z,98352.20
2019-04-22T10:16:20.194Z,98341.17
2019-04-22T10:21:31.509Z,98333.82
2019-04-22T10:23:47.165Z,98330.89
2019-04-22T10:26:21.775Z,98316.62
2019-04-22T10:28:53.123Z,98319.73
2019-04-22T10:31:29.428Z,98324.85
2019-04-22T10:33:44.057Z,98322.98
2019-04-22T10:35:53.373Z,98320.27
2019-04-22T10:38:22.098Z,98306.83
2019-04-22T10:40:52.469Z,98315.33
2019-04-22T10:43:21.212Z,98308.12
2019-04-22T10:45:50.262Z,98291.27
2019-04-22T10:48:18.882Z,98300.59
2019-04-22T10:50:48.867Z,98295.39
2019-04-22T10:53:19.649Z,98271.49
2019-04-22T10:55:50.965Z,98279.09
2019-04-22T10:58:18.808Z,98282.55
2019-04-22T11:00:47.456Z,98272.08
2019-04-22T11:03:18.154Z,98274.45
2019-04-22T11:05:48.297Z,98271.34
2019-04-22T11:08:25.953Z,98265.88
2019-04-22T11:11:03.632Z,98249.45
2019-04-22T11:13:18.006Z,98264.14
2019-04-22T11:15:46.836Z,98254.41
2019-04-22T11:18:15.920Z,98259.38
2019-04-22T11:20:44.413Z,98247.75
2019-04-22T11:23:14.289Z,98232.69
2019-04-22T11:25:43.964Z,98242.27
2019-04-22T11:28:13.677Z,98237.59
2019-04-22T11:30:42.902Z,98228.06
2019-04-22T11:33:12.100Z,98220.73
2019-04-22T11:35:41.768Z,98221.73
2019-04-22T11:38:12.807Z,98220.77
2019-04-22T11:40:45.988Z,98211.21
2019-04-22T11:43:12.396Z,98200.07
2019-04-22T11:45:41.590Z,98209.64
2019-04-22T11:48:11.169Z,98206.51
2019-04-22T11:50:40.139Z,98197.90
2019-04-22T11:53:08.954Z,98198.08
2019-04-22T11:55:37.742Z,98196.34
2019-04-22T11:58:06.815Z,98193.16
2019-04-22T12:00:37.167Z,98182.52
2019-04-22T12:03:07.273Z,98188.63
2019-04-22T12:05:35.902Z,98183.52
2019-04-22T12:08:04.948Z,98174.90
2019-04-22T12:10:41.118Z,98170.47
2019-04-22T12:13:04.119Z,98168.95
2019-04-22T12:15:35.076Z,98164.89
2019-04-22T12:18:03.820Z,98160.09
2019-04-22T12:20:32.977Z,98148.47
2019-04-22T12:23:03.124Z,98150.25
2019-04-22T12:25:44.365Z,98147.28
2019-04-22T12:28:03.289Z,98137.50
2019-04-22T12:30:33.393Z,98148.23
2019-04-22T12:33:02.330Z,98130.70
2019-04-22T12:35:32.549Z,98130.48
2019-04-22T12:38:06.224Z,98128.30
2019-04-22T12:40:41.178Z,98125.55
2019-04-22T12:43:04.692Z,98107.12
2019-04-22T12:45:32.028Z,98107.00
2019-04-22T12:48:00.438Z,98099.66
2019-04-22T12:50:33.848Z,98106.23
2019-04-22T12:53:06.877Z,98100.82
2019-04-22T12:55:30.296Z,98096.45
2019-04-22T12:58:00.946Z,98084.37
2019-04-22T13:00:30.210Z,98080.14
2019-04-22T13:02:58.930Z,98075.59
2019-04-22T13:05:27.399Z,98076.08
2019-04-22T13:07:55.926Z,98070.31
2019-04-22T13:10:26.018Z,98065.69
2019-04-22T13:12:55.161Z,98059.39
2019-04-22T13:15:23.952Z,98069.80
2019-04-22T13:18:03.200Z,98079.25
2019-04-22T13:20:24.344Z,98070.44
2019-04-22T13:22:52.887Z,98061.64
2019-04-22T13:25:26.032Z,98062.09
2019-04-22T13:27:53.359Z,98050.89
2019-04-22T13:30:23.307Z,98046.53
2019-04-22T13:32:52.722Z,98040.33
2019-04-22T13:35:22.290Z,98039.12
2019-04-22T13:37:53.074Z,98043.59
2019-04-22T13:40:23.199Z,98032.91
2019-04-22T13:42:53.427Z,98046.58
2019-04-22T13:45:22.388Z,98044.66
2019-04-22T13:48:10.992Z,98038.66
2019-04-22T13:51:01.660Z,98028.39
2019-04-22T13:55:53.244Z,98019.73
2019-04-22T13:58:04.315Z,98019.95
2019-04-22T14:00:34.606Z,98028.14
2019-04-22T14:03:22.517Z,98019.16
2019-04-22T14:05:58.673Z,98009.20
2019-04-22T14:08:27.083Z,98008.56
2019-04-22T14:10:57.868Z,98016.35
2019-04-22T14:13:25.920Z,98000.80
2019-04-22T14:15:55.014Z,97988.86
2019-04-22T14:18:23.457Z,97975.45
2019-04-22T14:20:51.869Z,97982.77
2019-04-22T14:23:20.729Z,97976.98
2019-04-22T14:25:50.843Z,97965.95
2019-04-22T14:28:21.436Z,97966.55
2019-04-22T14:30:50.593Z,97967.34
2019-04-22T14:33:20.308Z,97971.81
2019-04-22T14:35:49.961Z,97969.70
2019-04-22T14:38:18.542Z,97964.08
2019-04-22T14:40:48.218Z,97952.54
2019-04-22T14:43:40.384Z,97967.88
2019-04-22T14:46:17.686Z,97970.41
2019-04-22T14:48:45.779Z,97955.36
2019-04-22T14:51:09.065Z,97945.22
2019-04-22T14:53:36.883Z,97947.69
2019-04-22T14:55:48.560Z,97940.11
2019-04-22T14:58:17.401Z,97938.49
2019-04-22T15:00:46.108Z,97934.17
2019-04-22T15:03:15.622Z,97934.79
2019-04-22T15:05:44.235Z,97926.84
2019-04-22T15:08:13.173Z,97932.08
2019-04-22T15:10:42.233Z,97929.99
2019-04-22T15:13:11.618Z,97916.50
2019-04-22T15:15:59.018Z,97913.44
2019-04-22T15:18:31.644Z,97910.45
2019-04-22T15:21:09.063Z,97914.74
2019-04-22T15:23:38.495Z,97910.38
2019-04-22T15:26:08.536Z,97907.73
2019-04-22T15:28:37.456Z,97900.73
2019-04-22T15:31:06.010Z,97907.91
2019-04-22T15:33:35.243Z,97908.75
2019-04-22T15:36:03.953Z,97898.23
2019-04-22T15:38:32.404Z,97887.72
2019-04-22T15:41:01.057Z,97903.83
2019-04-22T15:43:34.641Z,97901.04
2019-04-22T15:46:03.714Z,97894.27
2019-04-22T15:48:33.791Z,97894.02
2019-04-22T15:51:02.859Z,97890.91
2019-04-22T15:53:31.705Z,97890.95
2019-04-22T15:56:00.852Z,97881.90
2019-04-22T15:58:30.183Z,97893.02
2019-04-22T16:01:08.898Z,97884.20
2019-04-22T16:03:29.139Z,97882.19
2019-04-22T16:05:57.828Z,97884.59
2019-04-22T16:08:26.714Z,97887.08
2019-04-22T16:10:55.863Z,97872.44
2019-04-22T16:13:27.311Z,97871.23
2019-04-22T16:15:54.594Z,97874.73
2019-04-22T16:18:24.442Z,97871.14
2019-04-22T16:20:54.308Z,97871.14
2019-04-22T16:23:27.891Z,97877.70
2019-04-22T16:26:15.229Z,97872.34
2019-04-22T16:28:45.134Z,97873.81
2019-04-22T16:31:13.646Z,97875.54
2019-04-22T16:33:45.409Z,97869.14
2019-04-22T16:36:13.092Z,97864.84
2019-04-22T16:38:42.762Z,97867.04
2019-04-22T16:41:12.740Z,97870.50
2019-04-22T16:43:42.719Z,97869.06
2019-04-22T16:46:11.689Z,97862.88
2019-04-22T16:48:40.207Z,97863.36
2019-04-22T16:51:09.879Z,97864.75
2019-04-22T16:53:38.981Z,97855.82
2019-04-22T16:56:08.710Z,97856.25
2019-04-22T16:58:37.230Z,97851.04
2019-04-22T17:01:07.525Z,97854.50
2019-04-22T17:03:38.707Z,97845.89
2019-04-22T17:06:11.946Z,97846.41
2019-04-22T17:08:40.458Z,97849.56
2019-04-22T17:11:09.696Z,97845.48
2019-04-22T17:13:39.908Z,97844.58
2019-04-22T17:16:09.867Z,97844.83
2019-04-22T17:18:39.401Z,97850.14
2019-04-22T17:21:10.151Z,97845.42
2019-04-22T17:23:38.313Z,97846.25
2019-04-22T17:26:08.431Z,97842.05
2019-04-22T17:28:37.485Z,97835.81
2019-04-22T17:31:06.679Z,97836.84
2019-04-22T17:33:35.257Z,97837.06
2019-04-22T17:36:05.276Z,97839.47
2019-04-22T17:38:42.784Z,97838.27
2019-04-22T17:41:16.205Z,97830.60
2019-04-22T17:43:58.793Z,97833.15
2019-04-22T17:46:29.176Z,97832.25
2019-04-22T17:49:10.261Z,97842.30
2019-04-22T17:51:47.753Z,97830.90
2019-04-22T17:54:27.181Z,97837.80
2019-04-22T17:56:45.519Z,97843.49
2019-04-22T17:59:19.021Z,97839.47
2019-04-22T18:01:39.761Z,97847.67
2019-04-22T18:03:55.543Z,97835.59
2019-04-22T18:06:48.883Z,97841.48
2019-04-22T18:09:11.315Z,97839.44
2019-04-22T18:11:48.328Z,97839.78
2019-04-22T18:14:29.966Z,97833.70
2019-04-22T18:16:41.359Z,97840.73
2019-04-22T18:19:15.531Z,97843.80
2019-04-22T18:21:41.202Z,97844.59
2019-04-22T18:24:05.086Z,97843.23
2019-04-22T18:26:44.695Z,97846.61
2019-04-22T18:29:11.522Z,97843.77
2019-04-22T18:31:35.618Z,97843.27
2019-04-22T18:34:08.260Z,97844.44
2019-04-22T18:36:42.834Z,97838.97
2019-04-22T18:39:20.863Z,97846.63
2019-04-22T18:41:47.131Z,97844.85
2019-04-22T18:44:19.971Z,97856.16
2019-04-22T18:46:43.049Z,97853.79
2019-04-22T18:49:12.387Z,97855.48
2019-04-22T18:51:52.967Z,97863.73
2019-04-22T18:54:31.005Z,97853.83
2019-04-22T18:56:58.789Z,97863.04
2019-04-22T18:59:18.470Z,97860.38
2019-04-22T19:01:41.963Z,97854.39
2019-04-22T19:04:17.180Z,97855.38
2019-04-22T19:07:00.408Z,97863.61
2019-04-22T19:09:38.238Z,97865.66
2019-04-22T19:12:19.665Z,97862.19
2019-04-22T19:14:40.556Z,97869.44
2019-04-22T19:17:11.937Z,97866.97
2019-04-22T19:19:55.949Z,97859.64
2019-04-22T19:22:04.778Z,97867.62
2019-04-22T19:24:32.336Z,97873.25
2019-04-22T19:27:03.025Z,97884.14
2019-04-22T19:29:39.905Z,97880.97
2019-04-22T19:32:06.873Z,97877.50
2019-04-22T19:34:38.487Z,97886.81
2019-04-22T19:37:11.426Z,97878.85
2019-04-22T19:39:33.080Z,97886.73
2019-04-22T19:42:19.023Z,97880.25
2019-04-22T19:44:38.555Z,97888.75
2019-04-22T19:47:26.834Z,97878.09
2019-04-22T19:49:48.102Z,97881.69
2019-04-22T19:52:10.895Z,97874.81
2019-04-22T19:54:37.737Z,97872.93
2019-04-22T19:57:05.751Z,97884.86
2019-04-22T19:59:50.826Z,97875.74
2019-04-22T20:02:27.477Z,97885.86
2019-04-22T20:05:06.533Z,97877.94
2019-04-22T20:07:41.593Z,97877.30
2019-04-22T20:10:23.593Z,97885.28
2019-04-22T20:12:42.813Z,97879.80
2019-04-22T20:15:14.246Z,97879.18
2019-04-22T20:18:11.685Z,97881.11
2019-04-22T20:20:23.032Z,97877.23
2019-04-22T20:22:44.433Z,97879.39
2019-04-22T20:25:07.624Z,97879.06
2019-04-22T20:27:48.185Z,97874.69
2019-04-22T20:30:26.621Z,97870.14
2019-04-22T20:32:47.154Z,97864.72
2019-04-22T20:35:21.299Z,97862.78
2019-04-22T20:37:54.789Z,97869.23
2019-04-22T20:40:25.277Z,97866.61
2019-04-22T20:42:55.574Z,97857.06
2019-04-22T20:45:26.995Z,97859.33
2019-04-22T20:47:45.370Z,97861.77
2019-04-22T20:50:23.573Z,97856.75
2019-04-22T20:52:59.244Z,97852.08
2019-04-22T20:55:17.966Z,97851.36
2019-04-22T20:57:53.380Z,97853.07
2019-04-22T21:00:20.009Z,97853.17
2019-04-22T21:02:46.116Z,97848.28
2019-04-22T21:05:19.700Z,97854.09
2019-04-22T21:07:55.623Z,97845.31
2019-04-22T21:10:19.853Z,97855.30
2019-04-22T21:12:48.274Z,97851.83
2019-04-22T21:15:32.125Z,97853.83
2019-04-22T21:17:55.341Z,97846.47
2019-04-22T21:20:34.775Z,97841.90
2019-04-22T21:22:56.012Z,97845.09
2019-04-22T21:25:20.776Z,97842.18
2019-04-22T21:27:56.882Z,97836.77
2019-04-22T21:30:26.466Z,97844.46
2019-04-22T21:32:59.034Z,97842.97
2019-04-22T21:35:47.509Z,97842.98
2019-04-22T21:38:04.420Z,97847.53
2019-04-22T21:40:45.614Z,97848.36
2019-04-22T21:43:07.105Z,97843.67
2019-04-22T21:45:25.241Z,97857.05
2019-04-22T21:48:18.092Z,97858.16
2019-04-22T21:50:51.545Z,97854.23
2019-04-22T21:53:06.770Z,97846.30
2019-04-22T21:55:37.892Z,97838.75
2019-04-22T21:58:12.246Z,97837.16
2019-04-22T22:01:06.522Z,97828.41
2019-04-22T22:03:34.593Z,97843.81
2019-04-22T22:05:49.176Z,97830.01
2019-04-22T22:08:32.109Z,97830.72
2019-04-22T22:10:58.410Z,97825.23
2019-04-22T22:13:31.851Z,97824.03
2019-04-22T22:16:00.113Z,97834.67
2019-04-22T22:18:24.199Z,97832.34
2019-04-22T22:21:19.630Z,97815.89
2019-04-22T22:23:31.837Z,97819.17
2019-04-22T22:25:55.220Z,97808.34
2019-04-22T22:28:47.775Z,97802.65
2019-04-22T22:31:08.855Z,97803.77
2019-04-22T22:33:28.306Z,97797.72
2019-04-22T22:35:58.373Z,97793.64
2019-04-22T22:38:26.996Z,97785.59
2019-04-22T22:40:43.848Z,97789.27
2019-04-22T22:43:20.374Z,97782.03
2019-04-22T22:45:49.144Z,97782.32
2019-04-22T22:48:36.534Z,97785.91
2019-04-22T22:50:58.507Z,97771.73
2019-04-22T22:56:06.311Z,97771.36
2019-04-22T22:58:34.804Z,97778.41
2019-04-22T23:00:59.069Z,97779.99
2019-04-22T23:03:45.614Z,97774.33
2019-04-22T23:06:03.256Z,97779.14
2019-04-22T23:08:38.181Z,97772.33
2019-04-22T23:11:22.298Z,97767.22
2019-04-22T23:13:37.073Z,97761.77
2019-04-22T23:15:58.394Z,97755.65
2019-04-22T23:18:14.033Z,97748.29
2019-04-22T23:20:47.527Z,97739.83
2019-04-22T23:23:33.038Z,97743.44
2019-04-22T23:26:06.782Z,97740.53
2019-04-22T23:28:41.159Z,97740.34
2019-04-22T23:31:10.788Z,97745.25
2019-04-22T23:33:54.679Z,97742.72
2019-04-22T23:36:30.621Z,97733.14
2019-04-22T23:39:12.178Z,97727.42
2019-04-22T23:42:00.373Z,97725.48
2019-04-22T23:44:16.012Z,97724.31
2019-04-22T23:46:57.083Z,97711.20
2019-04-22T23:49:25.061Z,97713.42
2019-04-22T23:52:16.287Z,97709.86
2019-04-22T23:54:35.873Z,97713.03
2019-04-22T23:56:51.947Z,97713.70
2019-04-22T23:59:44.561Z,97711.00
